sensor_id;sensor_type;location;lat;lon;timestamp;temperature;humidity
7030;DHT22;3556;53.500;10.176;2022-07-29T00:01:18;13.70;99.90
7030;DHT22;3556;53.500;10.176;2022-07-29T00:03:43;13.60;99.90
7030;DHT22;3556;53.500;10.176;2022-07-29T00:06:09;13.60;99.90
7030;DHT22;3556;53.500;10.176;2022-07-29T00:08:35;13.50;99.90
7030;DHT22;3556;53.500;10.176;2022-07-29T00:11:00;13.50;99.90
7030;DHT22;3556;53.500;10.176;2022-07-29T00:13:26;13.50;99.90
7030;DHT22;3556;53.500;10.176;2022-07-29T00:15:51;13.50;99.90
7030;DHT22;3556;53.500;10.176;2022-07-29T00:18:17;13.40;99.90
7030;DHT22;3556;53.500;10.176;2022-07-29T00:20:43;13.40;99.90
7030;DHT22;3556;53.500;10.176;2022-07-29T00:23:08;13.30;99.90
7030;DHT22;3556;53.500;10.176;2022-07-29T00:25:34;13.30;99.90
7030;DHT22;3556;53.500;10.176;2022-07-29T00:28:00;13.20;99.90
7030;DHT22;3556;53.500;10.176;2022-07-29T00:30:25;13.20;99.90
7030;DHT22;3556;53.500;10.176;2022-07-29T00:32:51;13.20;99.90
7030;DHT22;3556;53.500;10.176;2022-07-29T00:35:16;13.10;99.90
7030;DHT22;3556;53.500;10.176;2022-07-29T00:38:00;13.10;99.90
7030;DHT22;3556;53.500;10.176;2022-07-29T00:40:26;13.10;99.90
7030;DHT22;3556;53.500;10.176;2022-07-29T00:42:52;13.00;99.90
7030;DHT22;3556;53.500;10.176;2022-07-29T00:45:18;13.00;99.90
7030;DHT22;3556;53.500;10.176;2022-07-29T00:47:44;13.00;99.90
7030;DHT22;3556;53.500;10.176;2022-07-29T00:50:11;13.00;99.90
7030;DHT22;3556;53.500;10.176;2022-07-29T00:52:38;12.90;99.90
7030;DHT22;3556;53.500;10.176;2022-07-29T00:55:07;12.90;99.90
7030;DHT22;3556;53.500;10.176;2022-07-29T00:57:33;12.90;99.90
7030;DHT22;3556;53.500;10.176;2022-07-29T00:59:59;12.90;99.90
7030;DHT22;3556;53.500;10.176;2022-07-29T01:02:25;12.90;99.90
7030;DHT22;3556;53.500;10.176;2022-07-29T01:04:51;12.90;99.90
7030;DHT22;3556;53.500;10.176;2022-07-29T01:07:17;13.00;99.90
7030;DHT22;3556;53.500;10.176;2022-07-29T01:09:44;13.00;99.90
7030;DHT22;3556;53.500;10.176;2022-07-29T01:12:12;13.00;99.90
7030;DHT22;3556;53.500;10.176;2022-07-29T01:14:39;13.00;99.90
7030;DHT22;3556;53.500;10.176;2022-07-29T01:17:17;12.90;99.90
7030;DHT22;3556;53.500;10.176;2022-07-29T01:20:10;13.00;99.90
7030;DHT22;3556;53.500;10.176;2022-07-29T01:25:48;13.00;99.90
7030;DHT22;3556;53.500;10.176;2022-07-29T01:31:19;12.90;99.90
7030;DHT22;3556;53.500;10.176;2022-07-29T01:33:50;12.90;99.90
7030;DHT22;3556;53.500;10.176;2022-07-29T01:36:39;12.90;99.90
7030;DHT22;3556;53.500;10.176;2022-07-29T01:41:40;12.90;99.90
7030;DHT22;3556;53.500;10.176;2022-07-29T01:44:17;12.90;99.90
7030;DHT22;3556;53.500;10.176;2022-07-29T01:46:50;12.90;99.90
7030;DHT22;3556;53.500;10.176;2022-07-29T01:49:21;12.90;99.90
7030;DHT22;3556;53.500;10.176;2022-07-29T01:51:58;12.90;99.90
7030;DHT22;3556;53.500;10.176;2022-07-29T01:54:32;12.90;99.90
7030;DHT22;3556;53.500;10.176;2022-07-29T01:57:00;12.90;99.90
7030;DHT22;3556;53.500;10.176;2022-07-29T01:59:29;12.90;99.90
7030;DHT22;3556;53.500;10.176;2022-07-29T02:01:57;12.90;99.90
7030;DHT22;3556;53.500;10.176;2022-07-29T02:04:24;12.90;99.90
7030;DHT22;3556;53.500;10.176;2022-07-29T02:06:52;12.80;99.90
7030;DHT22;3556;53.500;10.176;2022-07-29T02:09:21;12.80;99.90
7030;DHT22;3556;53.500;10.176;2022-07-29T02:11:50;12.90;99.90
7030;DHT22;3556;53.500;10.176;2022-07-29T02:14:18;12.80;99.90
7030;DHT22;3556;53.500;10.176;2022-07-29T02:16:47;12.90;99.90
7030;DHT22;3556;53.500;10.176;2022-07-29T02:19:16;12.80;99.90
7030;DHT22;3556;53.500;10.176;2022-07-29T02:21:43;12.80;99.90
7030;DHT22;3556;53.500;10.176;2022-07-29T02:24:11;12.80;99.90
7030;DHT22;3556;53.500;10.176;2022-07-29T02:26:40;12.80;99.90
7030;DHT22;3556;53.500;10.176;2022-07-29T02:29:07;12.80;99.90
7030;DHT22;3556;53.500;10.176;2022-07-29T02:31:35;12.80;99.90
7030;DHT22;3556;53.500;10.176;2022-07-29T02:34:03;12.80;99.90
7030;DHT22;3556;53.500;10.176;2022-07-29T02:36:31;12.80;99.90
7030;DHT22;3556;53.500;10.176;2022-07-29T02:38:58;12.80;99.90
7030;DHT22;3556;53.500;10.176;2022-07-29T02:41:47;12.80;99.90
7030;DHT22;3556;53.500;10.176;2022-07-29T02:44:19;12.80;99.90
7030;DHT22;3556;53.500;10.176;2022-07-29T02:47:02;12.80;99.90
7030;DHT22;3556;53.500;10.176;2022-07-29T02:49:35;12.80;99.90
7030;DHT22;3556;53.500;10.176;2022-07-29T02:52:04;12.80;99.90
7030;DHT22;3556;53.500;10.176;2022-07-29T02:57:09;12.80;99.90
7030;DHT22;3556;53.500;10.176;2022-07-29T02:59:37;12.80;99.90
7030;DHT22;3556;53.500;10.176;2022-07-29T03:02:07;12.80;99.90
7030;DHT22;3556;53.500;10.176;2022-07-29T03:04:34;12.80;99.90
7030;DHT22;3556;53.500;10.176;2022-07-29T03:07:00;12.90;99.90
7030;DHT22;3556;53.500;10.176;2022-07-29T03:09:27;12.80;99.90
7030;DHT22;3556;53.500;10.176;2022-07-29T03:11:54;12.80;99.90
7030;DHT22;3556;53.500;10.176;2022-07-29T03:14:21;12.80;99.90
7030;DHT22;3556;53.500;10.176;2022-07-29T03:16:49;12.90;99.90
7030;DHT22;3556;53.500;10.176;2022-07-29T03:19:15;12.90;99.90
7030;DHT22;3556;53.500;10.176;2022-07-29T03:21:41;12.90;99.90
7030;DHT22;3556;53.500;10.176;2022-07-29T03:24:07;12.90;99.90
7030;DHT22;3556;53.500;10.176;2022-07-29T03:26:33;12.90;99.90
7030;DHT22;3556;53.500;10.176;2022-07-29T03:28:59;12.90;99.90
7030;DHT22;3556;53.500;10.176;2022-07-29T03:31:24;12.90;99.90
7030;DHT22;3556;53.500;10.176;2022-07-29T03:33:51;12.90;99.90
7030;DHT22;3556;53.500;10.176;2022-07-29T03:36:16;12.90;99.90
7030;DHT22;3556;53.500;10.176;2022-07-29T03:38:43;12.90;99.90
7030;DHT22;3556;53.500;10.176;2022-07-29T03:41:10;12.90;99.90
7030;DHT22;3556;53.500;10.176;2022-07-29T03:43:38;13.00;99.90
7030;DHT22;3556;53.500;10.176;2022-07-29T03:46:07;13.00;99.90
7030;DHT22;3556;53.500;10.176;2022-07-29T03:48:37;13.00;99.90
7030;DHT22;3556;53.500;10.176;2022-07-29T03:51:05;13.00;99.90
7030;DHT22;3556;53.500;10.176;2022-07-29T03:53:31;13.00;99.90
7030;DHT22;3556;53.500;10.176;2022-07-29T03:56:00;13.00;99.90
7030;DHT22;3556;53.500;10.176;2022-07-29T03:58:27;13.00;99.90
7030;DHT22;3556;53.500;10.176;2022-07-29T04:00:56;13.00;99.90
7030;DHT22;3556;53.500;10.176;2022-07-29T04:03:23;13.10;99.90
7030;DHT22;3556;53.500;10.176;2022-07-29T04:06:18;13.10;99.90
7030;DHT22;3556;53.500;10.176;2022-07-29T04:08:43;13.10;99.90
7030;DHT22;3556;53.500;10.176;2022-07-29T04:11:09;13.10;99.90
7030;DHT22;3556;53.500;10.176;2022-07-29T04:13:35;13.10;99.90
7030;DHT22;3556;53.500;10.176;2022-07-29T04:16:00;13.10;99.90
7030;DHT22;3556;53.500;10.176;2022-07-29T04:18:26;13.10;99.90
7030;DHT22;3556;53.500;10.176;2022-07-29T04:20:52;13.10;99.90
7030;DHT22;3556;53.500;10.176;2022-07-29T04:23:17;13.20;99.90
7030;DHT22;3556;53.500;10.176;2022-07-29T04:25:43;13.20;99.90
7030;DHT22;3556;53.500;10.176;2022-07-29T04:28:09;13.20;99.90
7030;DHT22;3556;53.500;10.176;2022-07-29T04:30:36;13.20;99.90
7030;DHT22;3556;53.500;10.176;2022-07-29T04:33:05;13.20;99.90
7030;DHT22;3556;53.500;10.176;2022-07-29T04:35:36;13.30;99.90
7030;DHT22;3556;53.500;10.176;2022-07-29T04:38:03;13.30;99.90
7030;DHT22;3556;53.500;10.176;2022-07-29T04:40:29;13.30;99.90
7030;DHT22;3556;53.500;10.176;2022-07-29T04:42:55;13.40;99.90
7030;DHT22;3556;53.500;10.176;2022-07-29T04:45:20;13.40;99.90
7030;DHT22;3556;53.500;10.176;2022-07-29T04:47:46;13.50;99.90
7030;DHT22;3556;53.500;10.176;2022-07-29T04:50:12;13.50;99.90
7030;DHT22;3556;53.500;10.176;2022-07-29T04:52:37;13.60;99.90
7030;DHT22;3556;53.500;10.176;2022-07-29T04:55:04;13.70;99.90
7030;DHT22;3556;53.500;10.176;2022-07-29T04:57:30;13.70;99.90
7030;DHT22;3556;53.500;10.176;2022-07-29T04:59:56;13.80;99.90
7030;DHT22;3556;53.500;10.176;2022-07-29T05:02:22;13.80;99.90
7030;DHT22;3556;53.500;10.176;2022-07-29T05:04:48;13.90;99.90
7030;DHT22;3556;53.500;10.176;2022-07-29T05:07:13;14.00;99.90
7030;DHT22;3556;53.500;10.176;2022-07-29T05:09:39;14.00;99.90
7030;DHT22;3556;53.500;10.176;2022-07-29T05:12:05;14.10;99.90
7030;DHT22;3556;53.500;10.176;2022-07-29T05:14:32;14.20;99.90
7030;DHT22;3556;53.500;10.176;2022-07-29T05:16:57;14.20;99.90
7030;DHT22;3556;53.500;10.176;2022-07-29T05:19:23;14.30;99.90
7030;DHT22;3556;53.500;10.176;2022-07-29T05:21:50;14.30;99.90
7030;DHT22;3556;53.500;10.176;2022-07-29T05:24:16;14.40;99.90
7030;DHT22;3556;53.500;10.176;2022-07-29T05:26:42;14.50;99.90
7030;DHT22;3556;53.500;10.176;2022-07-29T05:29:07;14.50;99.90
7030;DHT22;3556;53.500;10.176;2022-07-29T05:31:33;14.50;99.90
7030;DHT22;3556;53.500;10.176;2022-07-29T05:33:59;14.60;99.90
7030;DHT22;3556;53.500;10.176;2022-07-29T05:36:24;14.70;99.90
7030;DHT22;3556;53.500;10.176;2022-07-29T05:38:50;14.70;99.90
7030;DHT22;3556;53.500;10.176;2022-07-29T05:41:17;14.70;99.90
7030;DHT22;3556;53.500;10.176;2022-07-29T05:43:43;14.80;99.90
7030;DHT22;3556;53.500;10.176;2022-07-29T05:46:09;14.90;99.90
7030;DHT22;3556;53.500;10.176;2022-07-29T05:48:34;14.90;99.90
7030;DHT22;3556;53.500;10.176;2022-07-29T05:51:00;15.00;99.90
7030;DHT22;3556;53.500;10.176;2022-07-29T05:53:26;15.10;99.90
7030;DHT22;3556;53.500;10.176;2022-07-29T05:55:52;15.20;99.90
7030;DHT22;3556;53.500;10.176;2022-07-29T05:58:18;15.30;99.90
7030;DHT22;3556;53.500;10.176;2022-07-29T06:00:43;15.30;99.90
7030;DHT22;3556;53.500;10.176;2022-07-29T06:03:09;15.40;99.90
7030;DHT22;3556;53.500;10.176;2022-07-29T06:05:35;15.50;99.90
7030;DHT22;3556;53.500;10.176;2022-07-29T06:08:00;15.60;99.90
7030;DHT22;3556;53.500;10.176;2022-07-29T06:10:26;15.70;99.90
7030;DHT22;3556;53.500;10.176;2022-07-29T06:12:52;15.80;99.90
7030;DHT22;3556;53.500;10.176;2022-07-29T06:15:17;15.90;99.90
7030;DHT22;3556;53.500;10.176;2022-07-29T06:17:43;16.10;99.90
7030;DHT22;3556;53.500;10.176;2022-07-29T06:20:09;16.10;99.90
7030;DHT22;3556;53.500;10.176;2022-07-29T06:22:35;16.20;99.90
7030;DHT22;3556;53.500;10.176;2022-07-29T06:25:02;16.30;99.90
7030;DHT22;3556;53.500;10.176;2022-07-29T06:27:27;16.30;99.90
7030;DHT22;3556;53.500;10.176;2022-07-29T06:29:53;16.40;99.90
7030;DHT22;3556;53.500;10.176;2022-07-29T06:32:19;16.50;99.90
7030;DHT22;3556;53.500;10.176;2022-07-29T06:34:45;16.50;99.90
7030;DHT22;3556;53.500;10.176;2022-07-29T06:37:10;16.60;99.90
7030;DHT22;3556;53.500;10.176;2022-07-29T06:39:36;16.70;99.90
7030;DHT22;3556;53.500;10.176;2022-07-29T06:42:03;16.80;99.90
7030;DHT22;3556;53.500;10.176;2022-07-29T06:44:29;16.90;99.90
7030;DHT22;3556;53.500;10.176;2022-07-29T06:46:55;16.90;99.90
7030;DHT22;3556;53.500;10.176;2022-07-29T06:49:21;17.00;99.90
7030;DHT22;3556;53.500;10.176;2022-07-29T06:51:47;17.10;99.90
7030;DHT22;3556;53.500;10.176;2022-07-29T06:54:13;17.10;99.90
7030;DHT22;3556;53.500;10.176;2022-07-29T06:56:39;17.20;99.90
7030;DHT22;3556;53.500;10.176;2022-07-29T06:59:11;17.20;99.90
7030;DHT22;3556;53.500;10.176;2022-07-29T07:01:39;17.30;99.90
7030;DHT22;3556;53.500;10.176;2022-07-29T07:04:05;17.40;99.90
7030;DHT22;3556;53.500;10.176;2022-07-29T07:06:31;17.50;99.90
7030;DHT22;3556;53.500;10.176;2022-07-29T07:08:56;17.50;99.90
7030;DHT22;3556;53.500;10.176;2022-07-29T07:11:22;17.60;99.90
7030;DHT22;3556;53.500;10.176;2022-07-29T07:13:48;17.60;99.90
7030;DHT22;3556;53.500;10.176;2022-07-29T07:16:14;17.70;99.90
7030;DHT22;3556;53.500;10.176;2022-07-29T07:18:39;17.80;99.90
7030;DHT22;3556;53.500;10.176;2022-07-29T07:21:05;17.80;99.90
7030;DHT22;3556;53.500;10.176;2022-07-29T07:23:31;17.90;99.90
7030;DHT22;3556;53.500;10.176;2022-07-29T07:25:57;18.00;99.90
7030;DHT22;3556;53.500;10.176;2022-07-29T07:28:22;18.00;99.90
7030;DHT22;3556;53.500;10.176;2022-07-29T07:30:48;18.10;99.90
7030;DHT22;3556;53.500;10.176;2022-07-29T07:33:14;18.10;99.90
7030;DHT22;3556;53.500;10.176;2022-07-29T07:35:40;18.20;99.90
7030;DHT22;3556;53.500;10.176;2022-07-29T07:38:06;18.20;99.90
7030;DHT22;3556;53.500;10.176;2022-07-29T07:40:32;18.30;99.90
7030;DHT22;3556;53.500;10.176;2022-07-29T07:42:58;18.40;99.90
7030;DHT22;3556;53.500;10.176;2022-07-29T07:45:23;18.40;99.90
7030;DHT22;3556;53.500;10.176;2022-07-29T07:47:49;18.50;99.90
7030;DHT22;3556;53.500;10.176;2022-07-29T07:50:15;18.60;99.90
7030;DHT22;3556;53.500;10.176;2022-07-29T07:52:53;18.70;99.90
7030;DHT22;3556;53.500;10.176;2022-07-29T07:55:20;18.80;99.90
7030;DHT22;3556;53.500;10.176;2022-07-29T07:57:46;18.90;99.90
7030;DHT22;3556;53.500;10.176;2022-07-29T08:00:13;19.00;99.90
7030;DHT22;3556;53.500;10.176;2022-07-29T08:02:40;19.10;99.90
7030;DHT22;3556;53.500;10.176;2022-07-29T08:05:07;19.30;99.90
7030;DHT22;3556;53.500;10.176;2022-07-29T08:07:33;19.50;99.90
7030;DHT22;3556;53.500;10.176;2022-07-29T08:09:59;19.60;99.90
7030;DHT22;3556;53.500;10.176;2022-07-29T08:12:24;19.70;99.90
7030;DHT22;3556;53.500;10.176;2022-07-29T08:14:50;19.80;99.90
7030;DHT22;3556;53.500;10.176;2022-07-29T08:17:16;19.90;99.90
7030;DHT22;3556;53.500;10.176;2022-07-29T08:19:41;19.90;99.90
7030;DHT22;3556;53.500;10.176;2022-07-29T08:22:07;20.00;99.90
7030;DHT22;3556;53.500;10.176;2022-07-29T08:24:33;20.10;99.90
7030;DHT22;3556;53.500;10.176;2022-07-29T08:27:17;20.20;99.90
7030;DHT22;3556;53.500;10.176;2022-07-29T08:29:43;20.30;99.90
7030;DHT22;3556;53.500;10.176;2022-07-29T08:32:08;20.40;99.90
7030;DHT22;3556;53.500;10.176;2022-07-29T08:34:34;20.40;99.90
7030;DHT22;3556;53.500;10.176;2022-07-29T08:37:00;20.50;99.90
7030;DHT22;3556;53.500;10.176;2022-07-29T08:39:25;20.60;99.90
7030;DHT22;3556;53.500;10.176;2022-07-29T08:41:51;20.80;99.90
7030;DHT22;3556;53.500;10.176;2022-07-29T08:44:18;20.90;99.90
7030;DHT22;3556;53.500;10.176;2022-07-29T08:46:44;21.10;99.90
7030;DHT22;3556;53.500;10.176;2022-07-29T08:49:10;21.20;99.90
7030;DHT22;3556;53.500;10.176;2022-07-29T08:51:38;21.30;99.90
7030;DHT22;3556;53.500;10.176;2022-07-29T08:54:05;21.30;99.90
7030;DHT22;3556;53.500;10.176;2022-07-29T08:56:31;21.30;99.90
7030;DHT22;3556;53.500;10.176;2022-07-29T08:58:58;21.40;99.90
7030;DHT22;3556;53.500;10.176;2022-07-29T09:01:27;21.40;99.90
7030;DHT22;3556;53.500;10.176;2022-07-29T09:03:56;21.40;99.90
7030;DHT22;3556;53.500;10.176;2022-07-29T09:06:24;21.50;99.90
7030;DHT22;3556;53.500;10.176;2022-07-29T09:08:54;21.50;99.90
7030;DHT22;3556;53.500;10.176;2022-07-29T09:11:23;21.60;99.90
7030;DHT22;3556;53.500;10.176;2022-07-29T09:13:49;21.80;99.90
7030;DHT22;3556;53.500;10.176;2022-07-29T09:16:15;22.00;99.90
7030;DHT22;3556;53.500;10.176;2022-07-29T09:18:42;22.10;99.90
7030;DHT22;3556;53.500;10.176;2022-07-29T09:21:11;22.30;99.90
7030;DHT22;3556;53.500;10.176;2022-07-29T09:26:43;22.30;99.10
7030;DHT22;3556;53.500;10.176;2022-07-29T09:29:15;22.30;99.50
7030;DHT22;3556;53.500;10.176;2022-07-29T09:31:45;22.30;99.90
7030;DHT22;3556;53.500;10.176;2022-07-29T09:34:13;22.30;99.90
7030;DHT22;3556;53.500;10.176;2022-07-29T09:36:47;22.40;99.90
7030;DHT22;3556;53.500;10.176;2022-07-29T09:39:13;22.30;99.30
7030;DHT22;3556;53.500;10.176;2022-07-29T09:41:54;22.40;98.80
7030;DHT22;3556;53.500;10.176;2022-07-29T09:44:22;22.50;99.40
7030;DHT22;3556;53.500;10.176;2022-07-29T09:47:02;22.60;99.90
7030;DHT22;3556;53.500;10.176;2022-07-29T09:49:36;22.70;99.40
7030;DHT22;3556;53.500;10.176;2022-07-29T09:52:15;22.80;99.90
7030;DHT22;3556;53.500;10.176;2022-07-29T09:54:40;22.90;99.50
7030;DHT22;3556;53.500;10.176;2022-07-29T09:57:08;23.00;99.90
7030;DHT22;3556;53.500;10.176;2022-07-29T09:59:38;23.00;98.90
7030;DHT22;3556;53.500;10.176;2022-07-29T10:02:13;23.10;99.10
7030;DHT22;3556;53.500;10.176;2022-07-29T10:04:42;23.20;99.40
7030;DHT22;3556;53.500;10.176;2022-07-29T10:07:08;23.20;99.30
7030;DHT22;3556;53.500;10.176;2022-07-29T10:09:35;23.30;98.40
7030;DHT22;3556;53.500;10.176;2022-07-29T10:12:08;23.30;99.50
7030;DHT22;3556;53.500;10.176;2022-07-29T10:14:35;23.40;99.10
7030;DHT22;3556;53.500;10.176;2022-07-29T10:17:02;23.40;99.10
7030;DHT22;3556;53.500;10.176;2022-07-29T10:19:29;23.40;97.60
7030;DHT22;3556;53.500;10.176;2022-07-29T10:21:59;23.50;98.40
7030;DHT22;3556;53.500;10.176;2022-07-29T10:24:26;23.50;96.50
7030;DHT22;3556;53.500;10.176;2022-07-29T10:26:58;23.50;96.30
7030;DHT22;3556;53.500;10.176;2022-07-29T10:29:24;23.60;96.40
7030;DHT22;3556;53.500;10.176;2022-07-29T10:31:57;23.60;95.60
7030;DHT22;3556;53.500;10.176;2022-07-29T10:34:48;23.70;96.40
7030;DHT22;3556;53.500;10.176;2022-07-29T10:40:03;23.90;96.00
7030;DHT22;3556;53.500;10.176;2022-07-29T10:42:52;24.10;95.40
7030;DHT22;3556;53.500;10.176;2022-07-29T10:45:18;24.20;95.40
7030;DHT22;3556;53.500;10.176;2022-07-29T10:47:45;24.50;95.30
7030;DHT22;3556;53.500;10.176;2022-07-29T10:50:10;24.80;95.90
7030;DHT22;3556;53.500;10.176;2022-07-29T10:52:53;25.20;95.20
7030;DHT22;3556;53.500;10.176;2022-07-29T10:55:48;25.50;93.50
7030;DHT22;3556;53.500;10.176;2022-07-29T10:58:19;25.90;93.40
7030;DHT22;3556;53.500;10.176;2022-07-29T11:00:47;26.00;92.90
7030;DHT22;3556;53.500;10.176;2022-07-29T11:06:09;26.50;91.40
7030;DHT22;3556;53.500;10.176;2022-07-29T11:08:35;26.60;91.10
7030;DHT22;3556;53.500;10.176;2022-07-29T11:11:33;26.80;91.00
7030;DHT22;3556;53.500;10.176;2022-07-29T11:13:59;26.90;89.60
7030;DHT22;3556;53.500;10.176;2022-07-29T11:16:24;27.00;88.50
7030;DHT22;3556;53.500;10.176;2022-07-29T11:21:40;27.00;86.30
7030;DHT22;3556;53.500;10.176;2022-07-29T11:24:13;26.90;83.00
7030;DHT22;3556;53.500;10.176;2022-07-29T11:26:39;26.90;83.80
7030;DHT22;3556;53.500;10.176;2022-07-29T11:31:48;26.80;84.20
7030;DHT22;3556;53.500;10.176;2022-07-29T11:34:32;27.00;86.00
7030;DHT22;3556;53.500;10.176;2022-07-29T11:39:37;27.60;83.00
7030;DHT22;3556;53.500;10.176;2022-07-29T11:45:05;28.20;78.20
7030;DHT22;3556;53.500;10.176;2022-07-29T11:47:48;28.60;78.80
7030;DHT22;3556;53.500;10.176;2022-07-29T11:50:28;28.70;80.70
7030;DHT22;3556;53.500;10.176;2022-07-29T11:52:54;28.80;77.60
7030;DHT22;3556;53.500;10.176;2022-07-29T11:55:21;29.10;74.00
7030;DHT22;3556;53.500;10.176;2022-07-29T11:57:50;29.40;72.10
7030;DHT22;3556;53.500;10.176;2022-07-29T12:00:24;29.60;74.80
7030;DHT22;3556;53.500;10.176;2022-07-29T12:02:50;29.80;69.00
7030;DHT22;3556;53.500;10.176;2022-07-29T12:05:17;29.90;69.80
7030;DHT22;3556;53.500;10.176;2022-07-29T12:07:43;30.00;69.50
7030;DHT22;3556;53.500;10.176;2022-07-29T12:10:09;30.20;67.50
7030;DHT22;3556;53.500;10.176;2022-07-29T12:12:35;30.20;69.40
7030;DHT22;3556;53.500;10.176;2022-07-29T12:15:14;30.10;64.70
7030;DHT22;3556;53.500;10.176;2022-07-29T12:17:42;29.90;65.30
7030;DHT22;3556;53.500;10.176;2022-07-29T12:20:08;29.60;63.60
7030;DHT22;3556;53.500;10.176;2022-07-29T12:22:39;29.40;65.80
7030;DHT22;3556;53.500;10.176;2022-07-29T12:25:11;29.30;66.60
7030;DHT22;3556;53.500;10.176;2022-07-29T12:27:38;29.10;64.30
7030;DHT22;3556;53.500;10.176;2022-07-29T12:30:15;29.00;67.80
7030;DHT22;3556;53.500;10.176;2022-07-29T12:32:46;28.80;67.80
7030;DHT22;3556;53.500;10.176;2022-07-29T12:35:16;28.80;67.90
7030;DHT22;3556;53.500;10.176;2022-07-29T12:37:43;28.80;66.00
7030;DHT22;3556;53.500;10.176;2022-07-29T12:40:12;28.90;65.90
7030;DHT22;3556;53.500;10.176;2022-07-29T12:42:39;28.90;65.50
7030;DHT22;3556;53.500;10.176;2022-07-29T12:45:05;29.00;66.90
7030;DHT22;3556;53.500;10.176;2022-07-29T12:47:31;29.20;66.40
7030;DHT22;3556;53.500;10.176;2022-07-29T12:50:12;29.40;63.00
7030;DHT22;3556;53.500;10.176;2022-07-29T12:52:39;29.70;63.30
7030;DHT22;3556;53.500;10.176;2022-07-29T12:55:05;30.00;60.80
7030;DHT22;3556;53.500;10.176;2022-07-29T12:57:32;30.20;59.10
7030;DHT22;3556;53.500;10.176;2022-07-29T13:00:11;30.40;64.30
7030;DHT22;3556;53.500;10.176;2022-07-29T13:02:38;30.80;59.80
7030;DHT22;3556;53.500;10.176;2022-07-29T13:05:05;31.30;61.70
7030;DHT22;3556;53.500;10.176;2022-07-29T13:07:33;31.60;58.50
7030;DHT22;3556;53.500;10.176;2022-07-29T13:10:15;32.10;58.90
7030;DHT22;3556;53.500;10.176;2022-07-29T13:13:01;32.40;57.30
7030;DHT22;3556;53.500;10.176;2022-07-29T13:15:27;32.70;58.30
7030;DHT22;3556;53.500;10.176;2022-07-29T13:17:53;33.00;58.10
7030;DHT22;3556;53.500;10.176;2022-07-29T13:20:23;33.10;53.70
7030;DHT22;3556;53.500;10.176;2022-07-29T13:22:49;33.30;54.40
7030;DHT22;3556;53.500;10.176;2022-07-29T13:25:27;33.50;55.00
7030;DHT22;3556;53.500;10.176;2022-07-29T13:27:53;33.60;49.50
7030;DHT22;3556;53.500;10.176;2022-07-29T13:30:20;33.70;49.70
7030;DHT22;3556;53.500;10.176;2022-07-29T13:32:46;33.70;49.40
7030;DHT22;3556;53.500;10.176;2022-07-29T13:35:12;33.70;50.90
7030;DHT22;3556;53.500;10.176;2022-07-29T13:37:39;33.70;50.10
7030;DHT22;3556;53.500;10.176;2022-07-29T13:40:08;33.70;50.50
7030;DHT22;3556;53.500;10.176;2022-07-29T13:42:34;33.70;51.30
7030;DHT22;3556;53.500;10.176;2022-07-29T13:45:01;33.70;51.20
7030;DHT22;3556;53.500;10.176;2022-07-29T13:47:27;33.70;49.00
7030;DHT22;3556;53.500;10.176;2022-07-29T13:49:54;33.50;48.10
7030;DHT22;3556;53.500;10.176;2022-07-29T13:52:20;33.30;48.00
7030;DHT22;3556;53.500;10.176;2022-07-29T13:54:46;33.00;47.40
7030;DHT22;3556;53.500;10.176;2022-07-29T13:57:12;32.60;50.30
7030;DHT22;3556;53.500;10.176;2022-07-29T13:59:39;32.20;53.10
7030;DHT22;3556;53.500;10.176;2022-07-29T14:02:06;32.00;56.80
7030;DHT22;3556;53.500;10.176;2022-07-29T14:04:32;31.60;57.20
7030;DHT22;3556;53.500;10.176;2022-07-29T14:06:58;31.30;58.10
7030;DHT22;3556;53.500;10.176;2022-07-29T14:09:24;31.20;59.50
7030;DHT22;3556;53.500;10.176;2022-07-29T14:11:50;31.40;58.70
7030;DHT22;3556;53.500;10.176;2022-07-29T14:14:17;31.60;58.30
7030;DHT22;3556;53.500;10.176;2022-07-29T14:16:42;31.80;58.90
7030;DHT22;3556;53.500;10.176;2022-07-29T14:19:08;31.90;58.10
7030;DHT22;3556;53.500;10.176;2022-07-29T14:21:33;32.00;58.90
7030;DHT22;3556;53.500;10.176;2022-07-29T14:24:00;32.20;57.50
7030;DHT22;3556;53.500;10.176;2022-07-29T14:26:25;32.20;57.90
7030;DHT22;3556;53.500;10.176;2022-07-29T14:28:51;32.20;57.20
7030;DHT22;3556;53.500;10.176;2022-07-29T14:31:17;32.20;59.30
7030;DHT22;3556;53.500;10.176;2022-07-29T14:33:42;32.10;59.20
7030;DHT22;3556;53.500;10.176;2022-07-29T14:36:08;32.10;58.20
7030;DHT22;3556;53.500;10.176;2022-07-29T14:38:35;32.10;59.00
7030;DHT22;3556;53.500;10.176;2022-07-29T14:41:01;32.00;59.40
7030;DHT22;3556;53.500;10.176;2022-07-29T14:43:26;32.00;59.50
7030;DHT22;3556;53.500;10.176;2022-07-29T14:45:52;32.10;58.10
7030;DHT22;3556;53.500;10.176;2022-07-29T14:48:18;32.20;58.10
7030;DHT22;3556;53.500;10.176;2022-07-29T14:50:43;32.20;57.30
7030;DHT22;3556;53.500;10.176;2022-07-29T14:53:09;32.40;59.00
7030;DHT22;3556;53.500;10.176;2022-07-29T14:55:35;32.40;55.50
7030;DHT22;3556;53.500;10.176;2022-07-29T14:58:00;32.30;55.60
7030;DHT22;3556;53.500;10.176;2022-07-29T15:00:27;32.10;57.00
7030;DHT22;3556;53.500;10.176;2022-07-29T15:02:52;32.10;59.20
7030;DHT22;3556;53.500;10.176;2022-07-29T15:05:18;32.10;58.00
7030;DHT22;3556;53.500;10.176;2022-07-29T15:07:44;31.90;56.10
7030;DHT22;3556;53.500;10.176;2022-07-29T15:10:09;31.30;56.50
7030;DHT22;3556;53.500;10.176;2022-07-29T15:12:35;30.90;59.00
7030;DHT22;3556;53.500;10.176;2022-07-29T15:15:01;30.50;59.20
7030;DHT22;3556;53.500;10.176;2022-07-29T15:17:26;30.30;62.00
7030;DHT22;3556;53.500;10.176;2022-07-29T15:19:52;30.10;63.50
7030;DHT22;3556;53.500;10.176;2022-07-29T15:22:18;30.00;61.40
7030;DHT22;3556;53.500;10.176;2022-07-29T15:24:43;30.00;61.30
7030;DHT22;3556;53.500;10.176;2022-07-29T15:27:10;30.00;62.30
7030;DHT22;3556;53.500;10.176;2022-07-29T15:29:40;30.10;62.60
7030;DHT22;3556;53.500;10.176;2022-07-29T15:32:07;29.90;62.70
7030;DHT22;3556;53.500;10.176;2022-07-29T15:34:33;29.70;62.60
7030;DHT22;3556;53.500;10.176;2022-07-29T15:36:59;29.40;64.20
7030;DHT22;3556;53.500;10.176;2022-07-29T15:39:24;29.10;63.20
7030;DHT22;3556;53.500;10.176;2022-07-29T15:41:50;28.90;65.00
7030;DHT22;3556;53.500;10.176;2022-07-29T15:44:16;28.70;63.80
7030;DHT22;3556;53.500;10.176;2022-07-29T15:46:42;28.50;64.20
7030;DHT22;3556;53.500;10.176;2022-07-29T15:49:26;28.30;65.70
7030;DHT22;3556;53.500;10.176;2022-07-29T15:52:00;28.20;66.60
7030;DHT22;3556;53.500;10.176;2022-07-29T15:54:26;28.10;67.20
7030;DHT22;3556;53.500;10.176;2022-07-29T15:56:52;28.20;66.30
7030;DHT22;3556;53.500;10.176;2022-07-29T15:59:19;28.20;66.60
7030;DHT22;3556;53.500;10.176;2022-07-29T16:01:44;28.20;66.40
7030;DHT22;3556;53.500;10.176;2022-07-29T16:04:10;28.10;66.00
7030;DHT22;3556;53.500;10.176;2022-07-29T16:06:36;28.00;65.10
7030;DHT22;3556;53.500;10.176;2022-07-29T16:09:02;27.90;66.20
7030;DHT22;3556;53.500;10.176;2022-07-29T16:11:27;27.80;68.20
7030;DHT22;3556;53.500;10.176;2022-07-29T16:13:53;27.70;68.10
7030;DHT22;3556;53.500;10.176;2022-07-29T16:16:19;27.70;69.50
7030;DHT22;3556;53.500;10.176;2022-07-29T16:18:45;27.60;68.80
7030;DHT22;3556;53.500;10.176;2022-07-29T16:21:11;27.40;69.60